Airfield :
LOGIN :

Register | Disclaimer

   EN    FR    IT 

 










Legend :    VFR   Marginal VFR   IFR   Intensive IFR   Very Intensive IFR
Visi :
Ceiling :
>= 8 km
>= 3000ft
5 to 8 km
1000 to 3000 ft
1500m to 5 km
500 to 1000 ft
800 to 1500m
200 to 500 ft
< 800m
< 200 ft
Symbols :   Thunderstorms  Fog  Heavy snow  Heavy precipitations  Wind > 20 kt
SIGMETs :     Misc.  Thunderstorms  Icing  Turbulence  Mountain Waves  Volcanic Ashes







- Airport Elevation : 1708 ft
- IATA code : SJJ


LQSA - Sarajevo

CURRENT METAR :
  • 151530Z 13013KT 110V170 9999 -RA FEW020 BKN030 OVC050 10/07 Q1001 TEMPO RA

EXPIRED METARs :
  • 151500Z 13017KT 9999 -RA FEW020 BKN030 OVC045 11/07 Q1001 WS ALL RWY NOSIG
  • 151430Z 13017KT 100V160 9999 -RA FEW020 BKN030 OVC045 13/06 Q1001 WS ALL RWY NOSIG
  • 151400Z 12016G26KT 090V150 9999 -RA FEW020 BKN030 OVC045 13/06 Q1000 WS ALL RWY NOSIG
  • 151330Z 12015KT 9999 SCT030 BKN045 13/06 Q1001 NOSIG
  • 151300Z 13016KT 9999 SCT030 BKN050 13/06 Q1001 NOSIG

TAF TAF LQSA
Valid from the 15 at 12:00 until the 16 at 12:00 UTC


151100Z 1512/1612 12008KT 9999 -RA SCT025 BKN040 TX14/1513Z TN07/1605Z
PROB30
TEMPO 1512/1518 18015KT
TEMPO 1512/1607 3000 RA BKN012 OVC030
TEMPO 1518/1603 18018G30KT
No reported NOTAMs for that airfield.



MET'MAP, your aeronautical weather chart ! - Copyright ORBIFLY December 2007 - Disclaimer

ORBIFLY MET'MAP TEAM :

Programming & Development : Alexandra Zaïnal
Concept & Development : Baudouin d'Aumeries
Co-Development & Prog : Marc-Olivier Méhu
Technical & hardware support : Manuel Goepfert

Contact : metmap@orbifly.com




SOURCES & CREDITS :

   NOAA